Poulton-le-Fylde, United Kingdom
Current Conditions -  °F | °C
As of 12:20 PM on Wednesday 26 Nov 2014 (Local Time) from EGNO Reporting Station
Broken Clouds Broken Clouds  
Wind Chill: 46°   Ceiling: 3200
Heat Index: 46°   Visibility: 4mi
Dew Point: 45°   Wind: 2mph
Humidity: 93%   Direction: 30°NNE
Pressure: 29.88"   Gusts: NA
Location:  53.83°N, 2.98°W
Report Text: EGNO 261220Z 03002KT 6000 FEW010 SCT020 BKN032 08/07 Q1012
Loading
Personal Weather Stations






























Interactive Weather Map New forecast layout! Learn more

10-Day Weather Forecast

Advertisements
Track Severe Weather on mobile